createdAt,value
2022-10-04T00:00:35.529Z,7.53
2022-10-04T00:01:35.540Z,7.51
2022-10-04T00:02:35.551Z,7.50
2022-10-04T00:03:35.490Z,7.45
2022-10-04T00:04:36.491Z,7.45
2022-10-04T00:05:35.486Z,7.43
2022-10-04T00:06:35.480Z,7.53
2022-10-04T00:07:35.509Z,7.48
2022-10-04T00:08:35.462Z,7.39
2022-10-04T00:09:35.458Z,7.32
2022-10-04T00:10:35.448Z,7.31
2022-10-04T00:11:35.447Z,7.39
2022-10-04T00:12:35.471Z,7.39
2022-10-04T00:13:35.431Z,7.36
2022-10-04T00:14:35.421Z,7.31
2022-10-04T00:15:35.410Z,7.36
2022-10-04T00:16:35.465Z,7.51
2022-10-04T00:17:35.424Z,7.43
2022-10-04T00:18:35.388Z,7.50
2022-10-04T00:19:35.384Z,7.45
2022-10-04T00:20:35.376Z,7.45
2022-10-04T00:21:35.364Z,7.50
2022-10-04T00:22:35.389Z,7.43
2022-10-04T00:23:35.379Z,7.50
2022-10-04T00:24:35.348Z,7.51
2022-10-04T00:25:35.339Z,7.53
2022-10-04T00:26:35.328Z,7.54
2022-10-04T00:27:35.357Z,7.58
2022-10-04T00:28:35.386Z,7.54
2022-10-04T00:29:35.310Z,7.50
2022-10-04T00:30:35.299Z,7.53
2022-10-04T00:31:35.331Z,7.51
2022-10-04T00:32:35.312Z,7.58
2022-10-04T00:33:35.272Z,7.54
2022-10-04T00:34:35.268Z,7.57
2022-10-04T00:35:35.267Z,7.48
2022-10-04T00:36:35.255Z,7.54
2022-10-04T00:37:35.244Z,7.50
2022-10-04T00:38:35.278Z,7.61
2022-10-04T00:39:35.230Z,7.66
2022-10-04T00:40:35.221Z,7.66
2022-10-04T00:41:35.213Z,7.58
2022-10-04T00:42:35.205Z,7.69
2022-10-04T00:43:35.223Z,7.63
2022-10-04T00:44:35.199Z,7.69
2022-10-04T00:45:35.184Z,7.70
2022-10-04T00:46:35.239Z,7.67
2022-10-04T00:47:35.169Z,7.73
2022-10-04T00:48:35.189Z,7.72
2022-10-04T00:49:35.159Z,7.70
2022-10-04T00:50:35.151Z,7.72
2022-10-04T00:51:35.137Z,7.72
2022-10-04T00:52:35.129Z,7.67
2022-10-04T00:53:35.149Z,7.76
2022-10-04T00:54:35.121Z,7.69
2022-10-04T00:55:35.108Z,7.69
2022-10-04T00:56:35.103Z,7.69
2022-10-04T00:57:35.103Z,7.69
2022-10-04T00:58:35.113Z,7.61
2022-10-04T00:59:35.077Z,7.69
2022-10-04T01:00:35.070Z,7.67
2022-10-04T01:01:35.136Z,7.75
2022-10-04T01:02:35.112Z,7.70
2022-10-04T01:03:35.083Z,7.70
2022-10-04T01:04:35.043Z,7.76
2022-10-04T01:05:35.031Z,7.77
2022-10-04T01:06:35.021Z,7.69
2022-10-04T01:07:35.017Z,7.76
2022-10-04T01:08:35.009Z,7.72
2022-10-04T01:09:35.028Z,7.76
2022-10-04T01:10:34.998Z,7.63
2022-10-04T01:11:34.989Z,7.69
2022-10-04T01:12:34.979Z,7.70
2022-10-04T01:13:34.967Z,7.67
2022-10-04T01:14:34.986Z,7.69
2022-10-04T01:15:35.026Z,7.73
2022-10-04T01:16:34.938Z,7.69
2022-10-04T01:17:34.934Z,7.77
2022-10-04T01:18:34.929Z,7.77
2022-10-04T01:19:34.959Z,7.79
2022-10-04T01:20:34.907Z,7.79
2022-10-04T01:21:34.901Z,7.85
2022-10-04T01:22:34.899Z,7.94
2022-10-04T01:23:34.890Z,7.88
2022-10-04T01:24:34.969Z,7.88
2022-10-04T01:25:34.878Z,7.93
2022-10-04T01:26:34.878Z,7.87
2022-10-04T01:27:34.854Z,7.94
2022-10-04T01:28:34.939Z,7.88
2022-10-04T01:29:34.869Z,7.98
2022-10-04T01:30:34.845Z,8.01
2022-10-04T01:31:34.907Z,8.03
2022-10-04T01:32:34.814Z,8.01
2022-10-04T01:33:34.799Z,8.06
2022-10-04T01:34:35.829Z,8.09
2022-10-04T01:35:34.802Z,8.03
2022-10-04T01:36:34.780Z,8.05
2022-10-04T01:37:34.781Z,8.08
2022-10-04T01:38:34.773Z,8.05
2022-10-04T01:39:34.788Z,8.09
2022-10-04T01:40:34.762Z,8.03
2022-10-04T01:41:34.746Z,7.98
2022-10-04T01:42:34.739Z,8.03
2022-10-04T01:43:34.739Z,8.06
2022-10-04T01:44:34.748Z,8.05
2022-10-04T01:45:34.717Z,8.05
2022-10-04T01:46:34.741Z,8.03
2022-10-04T01:47:34.705Z,8.01
2022-10-04T01:48:34.698Z,7.95
2022-10-04T01:49:34.962Z,7.88
2022-10-04T01:50:34.684Z,8.00
2022-10-04T01:51:34.677Z,7.91
2022-10-04T01:52:34.667Z,7.90
2022-10-04T01:53:34.654Z,7.88
2022-10-04T01:54:34.955Z,7.90
2022-10-04T01:55:35.639Z,7.93
2022-10-04T01:56:34.631Z,7.83
2022-10-04T01:57:34.629Z,7.90
2022-10-04T01:58:34.615Z,7.83
2022-10-04T01:59:34.644Z,7.95
2022-10-04T02:00:34.601Z,7.83
2022-10-04T02:01:34.625Z,7.90
2022-10-04T02:02:34.584Z,7.95
2022-10-04T02:03:34.611Z,7.83
2022-10-04T02:04:34.654Z,7.90
2022-10-04T02:05:34.564Z,7.87
2022-10-04T02:06:34.550Z,7.88
2022-10-04T02:07:34.545Z,7.79
2022-10-04T02:08:34.536Z,7.70
2022-10-04T02:09:34.534Z,7.77
2022-10-04T02:10:34.548Z,7.75
2022-10-04T02:11:34.513Z,7.67
2022-10-04T02:12:34.505Z,7.76
2022-10-04T02:13:34.497Z,7.70
2022-10-04T02:14:34.531Z,7.72
2022-10-04T02:15:34.482Z,7.80
2022-10-04T02:16:34.475Z,7.88
2022-10-04T02:17:34.476Z,7.85
2022-10-04T02:18:34.463Z,7.82
2022-10-04T02:19:34.453Z,7.80
2022-10-04T02:20:34.478Z,7.87
2022-10-04T02:21:34.434Z,7.85
2022-10-04T02:22:35.435Z,7.87
2022-10-04T02:23:34.423Z,7.87
2022-10-04T02:24:34.413Z,7.82
2022-10-04T02:25:34.508Z,7.70
2022-10-04T02:26:34.405Z,7.66
2022-10-04T02:27:34.395Z,7.73
2022-10-04T02:28:34.413Z,7.70
2022-10-04T02:29:34.375Z,7.66
2022-10-04T02:30:34.501Z,7.75
2022-10-04T02:31:34.421Z,7.72
2022-10-04T02:32:34.364Z,7.82
2022-10-04T02:33:34.346Z,7.75
2022-10-04T02:34:34.341Z,7.77
2022-10-04T02:35:34.525Z,7.77
2022-10-04T02:36:34.327Z,7.88
2022-10-04T02:37:34.322Z,7.94
2022-10-04T02:38:34.307Z,7.83
2022-10-04T02:39:34.300Z,7.77
2022-10-04T02:40:34.534Z,7.91
2022-10-04T02:41:34.281Z,7.95
2022-10-04T02:42:34.284Z,7.95
2022-10-04T02:43:34.277Z,7.98
2022-10-04T02:44:34.265Z,8.10
2022-10-04T02:45:34.552Z,8.06
2022-10-04T02:46:34.322Z,8.10
2022-10-04T02:47:34.240Z,8.16
2022-10-04T02:48:34.231Z,8.12
2022-10-04T02:49:34.230Z,8.19
2022-10-04T02:50:34.573Z,8.12
2022-10-04T02:51:34.207Z,8.15
2022-10-04T02:52:34.208Z,8.10
2022-10-04T02:53:34.195Z,8.10
2022-10-04T02:54:34.185Z,8.08
2022-10-04T02:55:34.202Z,8.13
2022-10-04T02:56:34.165Z,8.01
2022-10-04T02:57:34.162Z,8.15
2022-10-04T02:58:34.166Z,8.06
2022-10-04T02:59:35.497Z,8.03
2022-10-04T03:00:35.450Z,8.00
2022-10-04T03:01:34.129Z,8.05
2022-10-04T03:02:34.147Z,7.94
2022-10-04T03:03:34.125Z,7.98
2022-10-04T03:04:34.119Z,7.95
2022-10-04T03:05:34.132Z,7.98
2022-10-04T03:06:34.097Z,7.93
2022-10-04T03:07:34.090Z,8.06
2022-10-04T03:08:34.078Z,7.95
2022-10-04T03:09:34.073Z,8.12
2022-10-04T03:10:34.089Z,7.95
2022-10-04T03:11:34.069Z,8.03
2022-10-04T03:12:34.050Z,7.94
2022-10-04T03:13:34.041Z,7.97
2022-10-04T03:14:34.033Z,7.93
2022-10-04T03:15:34.067Z,7.94
2022-10-04T03:16:34.059Z,7.91
2022-10-04T03:17:34.023Z,7.88
2022-10-04T03:18:34.002Z,7.94
2022-10-04T03:19:33.995Z,7.88
2022-10-04T03:20:34.022Z,7.79
2022-10-04T03:21:33.976Z,7.83
2022-10-04T03:22:33.973Z,7.91
2022-10-04T03:23:33.959Z,7.80
2022-10-04T03:24:33.954Z,7.82
2022-10-04T03:25:33.982Z,7.79
2022-10-04T03:26:33.941Z,7.77
2022-10-04T03:27:33.932Z,7.90
2022-10-04T03:28:34.040Z,7.88
2022-10-04T03:29:33.912Z,7.82
2022-10-04T03:30:33.908Z,7.91
2022-10-04T03:31:33.951Z,7.91
2022-10-04T03:32:33.893Z,7.93
2022-10-04T03:33:33.881Z,7.95
2022-10-04T03:34:33.887Z,7.94
2022-10-04T03:35:33.867Z,7.97
2022-10-04T03:36:33.889Z,8.01
2022-10-04T03:37:33.852Z,8.00
2022-10-04T03:38:33.846Z,8.00
2022-10-04T03:39:33.834Z,8.03
2022-10-04T03:40:33.830Z,8.12
2022-10-04T03:41:33.848Z,8.15
2022-10-04T03:42:33.809Z,8.03
2022-10-04T03:43:33.805Z,8.06
2022-10-04T03:44:33.796Z,8.05
2022-10-04T03:45:33.824Z,8.12
2022-10-04T03:46:33.809Z,8.03
2022-10-04T03:47:33.776Z,8.15
2022-10-04T03:48:33.767Z,8.08
2022-10-04T03:49:33.756Z,8.05
2022-10-04T03:50:33.755Z,8.10
2022-10-04T03:51:33.768Z,7.94
2022-10-04T03:52:33.732Z,7.98
2022-10-04T03:53:33.725Z,8.10
2022-10-04T03:54:33.717Z,8.13
2022-10-04T03:55:33.714Z,8.00
2022-10-04T03:56:33.729Z,8.10
2022-10-04T03:57:33.695Z,8.10
2022-10-04T03:58:33.690Z,8.09
2022-10-04T03:59:33.682Z,8.12
2022-10-04T04:00:33.677Z,8.03
2022-10-04T04:01:33.745Z,8.08
2022-10-04T04:02:33.761Z,8.05
2022-10-04T04:03:33.650Z,8.10
2022-10-04T04:04:33.643Z,7.95
2022-10-04T04:05:33.633Z,8.06
2022-10-04T04:06:33.645Z,7.93
2022-10-04T04:07:33.616Z,7.98
2022-10-04T04:08:33.609Z,8.06
2022-10-04T04:09:33.598Z,7.97
2022-10-04T04:10:33.595Z,8.00
2022-10-04T04:11:33.608Z,7.98
2022-10-04T04:12:33.576Z,8.05
2022-10-04T04:13:33.575Z,7.91
2022-10-04T04:14:33.560Z,7.94
2022-10-04T04:15:33.552Z,7.83
2022-10-04T04:16:33.649Z,7.91
2022-10-04T04:17:33.529Z,7.91
2022-10-04T04:18:34.534Z,7.87
2022-10-04T04:19:33.518Z,7.97
2022-10-04T04:20:33.514Z,8.00
2022-10-04T04:21:33.563Z,7.97
2022-10-04T04:22:33.498Z,8.01
2022-10-04T04:23:33.491Z,7.91
2022-10-04T04:24:33.479Z,7.95
2022-10-04T04:25:33.472Z,7.97
2022-10-04T04:26:33.491Z,8.06
2022-10-04T04:27:33.462Z,8.00
2022-10-04T04:28:33.490Z,7.95
2022-10-04T04:29:33.438Z,8.03
2022-10-04T04:30:34.430Z,8.06
2022-10-04T04:31:33.478Z,8.05
2022-10-04T04:32:33.415Z,8.05
2022-10-04T04:33:33.407Z,8.12
2022-10-04T04:34:33.400Z,8.10
2022-10-04T04:35:33.396Z,8.16
2022-10-04T04:36:33.409Z,8.15
2022-10-04T04:37:33.374Z,8.06
2022-10-04T04:38:33.367Z,8.08
2022-10-04T04:39:33.397Z,8.05
2022-10-04T04:40:33.353Z,8.10
2022-10-04T04:41:33.370Z,8.10
2022-10-04T04:42:33.339Z,8.12
2022-10-04T04:43:33.326Z,8.08
2022-10-04T04:44:33.324Z,8.05
2022-10-04T04:45:33.343Z,8.03
2022-10-04T04:46:33.395Z,8.13
2022-10-04T04:47:33.304Z,7.98
2022-10-04T04:48:33.290Z,8.15
2022-10-04T04:49:33.273Z,7.97
2022-10-04T04:50:34.274Z,8.03
2022-10-04T04:51:33.292Z,7.98
2022-10-04T04:52:33.256Z,8.00
2022-10-04T04:53:33.252Z,7.94
2022-10-04T04:54:33.240Z,8.08
2022-10-04T04:55:50.087Z,7.98
2022-10-04T04:56:35.253Z,8.06
2022-10-04T04:57:33.222Z,7.93
2022-10-04T04:58:33.243Z,7.91
2022-10-04T04:59:33.200Z,7.87
2022-10-04T05:00:33.191Z,7.88
2022-10-04T05:01:33.289Z,7.94
2022-10-04T05:02:33.313Z,7.95
2022-10-04T05:03:33.173Z,7.91
2022-10-04T05:04:33.162Z,7.95
2022-10-04T05:05:33.146Z,7.95
2022-10-04T05:06:34.193Z,7.85
2022-10-04T05:07:33.138Z,7.93
2022-10-04T05:08:37.184Z,7.82
2022-10-04T05:09:34.121Z,7.91
2022-10-04T05:10:33.138Z,7.85
2022-10-04T05:11:33.106Z,7.87
2022-10-04T05:12:33.088Z,7.93
2022-10-04T05:13:34.088Z,7.94
2022-10-04T05:14:33.076Z,7.97
2022-10-04T05:15:33.108Z,7.93
2022-10-04T05:16:33.105Z,7.83
2022-10-04T05:17:33.060Z,7.79
2022-10-04T05:18:33.062Z,7.91
2022-10-04T05:19:33.040Z,7.85
2022-10-04T05:20:33.060Z,7.91
2022-10-04T05:21:33.026Z,8.00
2022-10-04T05:22:33.017Z,8.01
2022-10-04T05:23:33.010Z,8.08
2022-10-04T05:24:33.008Z,7.94
2022-10-04T05:25:32.998Z,8.06
2022-10-04T05:26:33.011Z,8.18
2022-10-04T05:27:33.107Z,7.97
2022-10-04T05:28:33.050Z,8.12
2022-10-04T05:29:32.964Z,8.09
2022-10-04T05:30:32.986Z,8.03
2022-10-04T05:31:32.987Z,8.01
2022-10-04T05:32:32.941Z,8.05
2022-10-04T05:33:33.963Z,8.10
2022-10-04T05:34:33.925Z,8.13
2022-10-04T05:35:32.920Z,8.12
2022-10-04T05:36:32.943Z,8.15
2022-10-04T05:37:32.903Z,8.12
2022-10-04T05:38:32.897Z,8.24
2022-10-04T05:39:32.887Z,8.16
2022-10-04T05:40:32.882Z,8.18
2022-10-04T05:41:33.743Z,8.23
2022-10-04T05:42:33.861Z,8.15
2022-10-04T05:43:32.854Z,8.23
2022-10-04T05:44:32.846Z,8.13
2022-10-04T05:45:32.912Z,8.15
2022-10-04T05:46:32.861Z,8.24
2022-10-04T05:47:32.826Z,8.23
2022-10-04T05:48:32.814Z,8.19
2022-10-04T05:49:32.807Z,8.16
2022-10-04T05:50:32.838Z,8.10
2022-10-04T05:51:32.813Z,8.18
2022-10-04T05:52:32.779Z,8.16
2022-10-04T05:53:32.776Z,8.16
2022-10-04T05:54:32.768Z,8.13
2022-10-04T05:55:32.758Z,8.10
2022-10-04T05:56:32.773Z,8.18
2022-10-04T05:57:32.793Z,8.13
2022-10-04T05:58:32.739Z,8.13
2022-10-04T05:59:32.731Z,8.26
2022-10-04T06:00:32.726Z,8.20
2022-10-04T06:01:32.785Z,8.31
2022-10-04T06:02:32.740Z,8.20
2022-10-04T06:03:32.701Z,8.19
2022-10-04T06:04:32.688Z,8.31
2022-10-04T06:05:32.687Z,8.23
2022-10-04T06:06:32.702Z,8.26
2022-10-04T06:07:32.672Z,8.33
2022-10-04T06:08:32.664Z,8.33
2022-10-04T06:09:32.650Z,8.31
2022-10-04T06:10:32.644Z,8.42
2022-10-04T06:11:32.665Z,8.45
2022-10-04T06:12:32.629Z,8.48
2022-10-04T06:13:32.622Z,8.58
2022-10-04T06:14:32.620Z,8.53
2022-10-04T06:15:32.607Z,8.60
2022-10-04T06:16:32.652Z,8.70
2022-10-04T06:17:33.590Z,8.64
2022-10-04T06:18:32.580Z,8.70
2022-10-04T06:19:32.577Z,8.73
2022-10-04T06:20:32.570Z,8.79
2022-10-04T06:21:32.598Z,8.78
2022-10-04T06:22:32.559Z,8.82
2022-10-04T06:23:32.542Z,8.82
2022-10-04T06:24:32.536Z,8.82
2022-10-04T06:25:32.537Z,8.94
2022-10-04T06:26:32.527Z,9.00
2022-10-04T06:27:32.545Z,9.08
2022-10-04T06:28:32.641Z,9.13
2022-10-04T06:29:32.500Z,9.04
2022-10-04T06:30:32.539Z,9.14
2022-10-04T06:31:32.484Z,9.16
2022-10-04T06:32:32.502Z,9.11
2022-10-04T06:33:32.465Z,9.14
2022-10-04T06:34:32.459Z,9.16
2022-10-04T06:35:32.452Z,9.21
2022-10-04T06:36:32.453Z,9.21
2022-10-04T06:37:32.464Z,9.14
2022-10-04T06:38:32.429Z,9.22
2022-10-04T06:39:32.420Z,9.28
2022-10-04T06:40:32.414Z,9.28
2022-10-04T06:41:32.404Z,9.29
2022-10-04T06:42:32.418Z,9.34
2022-10-04T06:43:32.391Z,9.32
2022-10-04T06:44:32.386Z,9.37
2022-10-04T06:45:32.374Z,9.43
2022-10-04T06:46:32.417Z,9.47
2022-10-04T06:47:32.386Z,9.41
2022-10-04T06:48:32.338Z,9.46
2022-10-04T06:49:33.343Z,9.48
2022-10-04T06:50:32.335Z,9.58
2022-10-04T06:51:32.338Z,9.54
2022-10-04T06:52:32.345Z,9.64
2022-10-04T06:53:32.307Z,9.54
2022-10-04T06:54:32.324Z,9.56
2022-10-04T06:55:32.298Z,9.56
2022-10-04T06:56:33.289Z,9.61
2022-10-04T06:57:32.310Z,9.50
2022-10-04T06:58:32.286Z,9.65
2022-10-04T06:59:32.269Z,9.64
2022-10-04T07:00:32.268Z,9.76
2022-10-04T07:01:32.326Z,9.77
2022-10-04T07:02:32.301Z,9.80
2022-10-04T07:03:32.234Z,9.80
2022-10-04T07:04:49.963Z,9.77
2022-10-04T07:05:34.229Z,9.84
2022-10-04T07:06:32.211Z,9.92
2022-10-04T07:07:32.226Z,9.99
2022-10-04T07:08:32.194Z,10.07
2022-10-04T07:09:32.238Z,10.05
2022-10-04T07:10:32.284Z,10.10
2022-10-04T07:11:32.175Z,10.22
2022-10-04T07:12:32.194Z,10.26
2022-10-04T07:13:32.155Z,10.25
2022-10-04T07:14:32.155Z,10.37
2022-10-04T07:15:32.174Z,10.90
2022-10-04T07:16:32.142Z,11.22
2022-10-04T07:17:32.162Z,11.73
2022-10-04T07:18:32.117Z,12.10
2022-10-04T07:19:32.108Z,12.53
2022-10-04T07:20:32.102Z,12.79
2022-10-04T07:21:32.095Z,12.83
2022-10-04T07:22:32.111Z,12.82
2022-10-04T07:23:32.085Z,12.75
2022-10-04T07:24:32.077Z,12.83
2022-10-04T07:25:32.061Z,13.00
2022-10-04T07:26:32.055Z,12.91
2022-10-04T07:27:32.073Z,12.70
2022-10-04T07:28:32.062Z,12.46
2022-10-04T07:29:32.027Z,12.36
2022-10-04T07:30:32.019Z,12.18
2022-10-04T07:31:32.057Z,12.04
2022-10-04T07:32:32.008Z,11.86
2022-10-04T07:33:32.022Z,11.77
2022-10-04T07:34:31.988Z,11.72
2022-10-04T07:35:31.977Z,11.66
2022-10-04T07:36:31.966Z,11.68
2022-10-04T07:37:32.965Z,11.65
2022-10-04T07:38:31.983Z,11.68
2022-10-04T07:39:31.951Z,11.63
2022-10-04T07:40:31.943Z,11.83
2022-10-04T07:41:31.933Z,11.94
2022-10-04T07:42:31.924Z,12.10
2022-10-04T07:43:31.946Z,12.09
2022-10-04T07:44:31.909Z,12.17
2022-10-04T07:45:31.903Z,12.09
2022-10-04T07:46:31.926Z,12.27
2022-10-04T07:47:31.892Z,12.28
2022-10-04T07:48:31.901Z,12.40
2022-10-04T07:49:31.868Z,12.45
2022-10-04T07:50:31.858Z,12.47
2022-10-04T07:51:31.857Z,12.54
2022-10-04T07:52:31.879Z,12.40
2022-10-04T07:53:31.835Z,12.46
2022-10-04T07:54:31.828Z,12.46
2022-10-04T07:55:31.825Z,12.46
2022-10-04T07:56:31.814Z,12.57
2022-10-04T07:57:31.840Z,12.58
2022-10-04T07:58:31.797Z,12.67
2022-10-04T07:59:31.795Z,12.80
2022-10-04T08:00:31.793Z,12.85
2022-10-04T08:01:31.820Z,12.98
2022-10-04T08:02:31.917Z,13.01
2022-10-04T08:03:31.831Z,13.00
2022-10-04T08:04:31.763Z,13.05
2022-10-04T08:05:31.752Z,13.00
2022-10-04T08:06:31.735Z,12.91
2022-10-04T08:07:31.768Z,12.79
2022-10-04T08:08:31.722Z,12.75
2022-10-04T08:09:31.711Z,12.65
2022-10-04T08:10:31.707Z,12.62
2022-10-04T08:11:31.700Z,12.64
2022-10-04T08:12:31.715Z,12.65
2022-10-04T08:13:31.684Z,12.64
2022-10-04T08:14:31.672Z,12.76
2022-10-04T08:15:31.740Z,12.86
2022-10-04T08:16:31.655Z,13.12
2022-10-04T08:17:31.680Z,13.49
2022-10-04T08:18:31.645Z,13.74
2022-10-04T08:19:31.633Z,13.92
2022-10-04T08:20:31.624Z,14.22
2022-10-04T08:21:31.619Z,14.51
2022-10-04T08:22:31.631Z,14.96
2022-10-04T08:23:31.601Z,15.27
2022-10-04T08:24:31.595Z,15.55
2022-10-04T08:25:31.586Z,15.76
2022-10-04T08:26:31.580Z,15.86
2022-10-04T08:27:31.600Z,16.20
2022-10-04T08:28:31.636Z,16.54
2022-10-04T08:29:31.562Z,16.66
2022-10-04T08:30:31.552Z,16.53
2022-10-04T08:31:31.590Z,16.69
2022-10-04T08:32:31.557Z,16.71
2022-10-04T08:33:31.531Z,16.86
2022-10-04T08:34:31.521Z,16.99
2022-10-04T08:35:31.512Z,17.06
2022-10-04T08:36:31.504Z,16.72
2022-10-04T08:37:31.529Z,16.56
2022-10-04T08:38:31.495Z,16.60
2022-10-04T08:39:31.482Z,16.49
2022-10-04T08:40:31.470Z,16.38
2022-10-04T08:41:31.463Z,16.53
2022-10-04T08:42:31.490Z,16.72
2022-10-04T08:43:31.448Z,16.60
2022-10-04T08:44:31.438Z,16.84
2022-10-04T08:45:31.433Z,17.46
2022-10-04T08:46:31.511Z,17.80
2022-10-04T08:47:31.419Z,18.29
2022-10-04T08:48:31.436Z,18.59
2022-10-04T08:49:31.403Z,18.98
2022-10-04T08:50:31.399Z,18.95
2022-10-04T08:51:31.389Z,18.55
2022-10-04T08:52:31.380Z,18.00
2022-10-04T08:53:31.398Z,17.60
2022-10-04T08:54:31.370Z,17.23
2022-10-04T08:55:31.363Z,16.83
2022-10-04T08:56:31.353Z,16.79
2022-10-04T08:57:31.346Z,16.74
2022-10-04T08:58:31.366Z,16.57
2022-10-04T08:59:31.329Z,16.39
2022-10-04T09:00:31.324Z,16.16
2022-10-04T09:01:31.405Z,16.00
2022-10-04T09:02:31.351Z,15.90
2022-10-04T09:03:31.325Z,15.73
2022-10-04T09:04:31.293Z,15.57
2022-10-04T09:05:31.286Z,15.39
2022-10-04T09:06:31.279Z,15.17
2022-10-04T09:07:31.274Z,15.17
2022-10-04T09:08:31.285Z,15.36
2022-10-04T09:09:31.252Z,15.52
2022-10-04T09:10:31.246Z,15.49
2022-10-04T09:11:31.241Z,15.54
2022-10-04T09:12:31.234Z,15.62
2022-10-04T09:13:31.255Z,16.01
2022-10-04T09:14:31.218Z,16.36
2022-10-04T09:15:31.441Z,16.49
2022-10-04T09:16:31.203Z,16.79
2022-10-04T09:17:31.196Z,16.99
2022-10-04T09:18:31.219Z,17.05
2022-10-04T09:19:31.183Z,17.05
2022-10-04T09:20:38.611Z,16.93
2022-10-04T09:21:33.171Z,16.87
2022-10-04T09:22:31.159Z,16.97
2022-10-04T09:23:31.180Z,16.99
2022-10-04T09:24:31.144Z,17.01
2022-10-04T09:25:31.165Z,17.29
2022-10-04T09:26:31.129Z,17.64
2022-10-04T09:27:53.718Z,17.86
2022-10-04T09:28:33.169Z,18.13
2022-10-04T09:29:31.101Z,18.19
2022-10-04T09:30:31.096Z,18.22
2022-10-04T09:31:31.146Z,18.29
2022-10-04T09:32:31.103Z,18.28
2022-10-04T09:33:31.092Z,18.23
2022-10-04T09:34:36.414Z,18.00
2022-10-04T09:35:33.052Z,18.07
2022-10-04T09:36:31.048Z,18.35
2022-10-04T09:37:31.065Z,18.40
2022-10-04T09:38:31.034Z,18.18
2022-10-04T09:39:31.419Z,18.15
2022-10-04T09:40:32.014Z,17.95
2022-10-04T09:41:31.005Z,17.97
2022-10-04T09:42:31.028Z,17.74
2022-10-04T09:43:30.992Z,17.70
2022-10-04T09:44:30.985Z,17.45
2022-10-04T09:45:30.980Z,17.39
2022-10-04T09:46:31.042Z,17.23
2022-10-04T09:47:30.998Z,17.01
2022-10-04T09:48:30.962Z,17.04
2022-10-04T09:49:30.952Z,16.97
2022-10-04T09:50:30.943Z,16.96
2022-10-04T09:51:30.938Z,17.11
2022-10-04T09:52:30.957Z,17.16
2022-10-04T09:53:30.916Z,17.36
2022-10-04T09:54:30.911Z,17.51
2022-10-04T09:55:30.906Z,17.68
2022-10-04T09:56:30.910Z,17.48
2022-10-04T09:57:30.931Z,17.36
2022-10-04T09:58:30.881Z,17.31
2022-10-04T09:59:30.881Z,17.38
2022-10-04T10:00:30.872Z,17.20
2022-10-04T10:01:30.901Z,17.09
2022-10-04T10:02:30.915Z,17.02
2022-10-04T10:03:30.846Z,17.02
2022-10-04T10:04:30.834Z,17.04
2022-10-04T10:05:30.833Z,17.04
2022-10-04T10:06:30.819Z,17.08
2022-10-04T10:07:30.844Z,17.14
2022-10-04T10:08:30.803Z,17.16
2022-10-04T10:09:30.804Z,17.29
2022-10-04T10:10:30.789Z,17.29
2022-10-04T10:11:30.783Z,17.22
2022-10-04T10:12:30.795Z,17.09
2022-10-04T10:13:32.143Z,17.23
2022-10-04T10:14:31.759Z,17.23
2022-10-04T10:15:30.751Z,17.36
2022-10-04T10:16:30.805Z,17.33
2022-10-04T10:17:30.759Z,17.38
2022-10-04T10:18:30.727Z,17.39
2022-10-04T10:19:30.724Z,17.45
2022-10-04T10:20:30.720Z,17.57
2022-10-04T10:21:30.713Z,17.56
2022-10-04T10:22:30.724Z,17.60
2022-10-04T10:23:30.691Z,17.59
2022-10-04T10:24:30.678Z,17.56
2022-10-04T10:25:30.678Z,17.54
2022-10-04T10:26:30.670Z,17.64
2022-10-04T10:27:30.684Z,17.63
2022-10-04T10:28:30.717Z,17.49
2022-10-04T10:29:30.647Z,17.44
2022-10-04T10:30:30.638Z,17.44
2022-10-04T10:31:30.688Z,17.44
2022-10-04T10:32:30.675Z,17.41
2022-10-04T10:33:30.621Z,17.29
2022-10-04T10:34:30.610Z,17.14
2022-10-04T10:35:30.595Z,17.26
2022-10-04T10:36:30.593Z,17.26
2022-10-04T10:37:30.610Z,17.19
2022-10-04T10:38:30.579Z,17.16
2022-10-04T10:39:30.568Z,17.09
2022-10-04T10:40:30.560Z,17.16
2022-10-04T10:41:30.554Z,17.11
2022-10-04T10:42:30.572Z,17.16
2022-10-04T10:43:30.548Z,17.24
2022-10-04T10:44:30.537Z,17.23
2022-10-04T10:45:30.530Z,17.16
2022-10-04T10:46:30.562Z,17.22
2022-10-04T10:47:30.534Z,17.14
2022-10-04T10:48:30.506Z,17.34
2022-10-04T10:49:30.493Z,17.30
2022-10-04T10:50:30.485Z,17.31
2022-10-04T10:51:30.512Z,17.27
2022-10-04T10:52:30.493Z,17.39
2022-10-04T10:53:30.458Z,17.39
2022-10-04T10:54:30.457Z,17.49
2022-10-04T10:55:30.438Z,17.38
2022-10-04T10:56:30.514Z,17.49
2022-10-04T10:57:30.450Z,17.56
2022-10-04T10:58:30.420Z,17.52
2022-10-04T10:59:30.411Z,17.79
2022-10-04T11:00:30.409Z,17.78
2022-10-04T11:01:30.527Z,17.92
2022-10-04T11:02:48.042Z,17.98
2022-10-04T11:03:32.765Z,18.07
2022-10-04T11:04:31.383Z,18.13
2022-10-04T11:05:30.371Z,18.16
2022-10-04T11:06:30.362Z,18.20
2022-10-04T11:07:30.381Z,18.28
2022-10-04T11:08:30.344Z,18.35
2022-10-04T11:09:30.331Z,18.25
2022-10-04T11:10:30.333Z,18.22
2022-10-04T11:11:30.316Z,18.28
2022-10-04T11:12:30.335Z,18.33
2022-10-04T11:13:30.306Z,18.38
2022-10-04T11:14:30.299Z,18.38
2022-10-04T11:15:30.291Z,18.44
2022-10-04T11:16:30.400Z,18.38
2022-10-04T11:17:30.292Z,18.37
2022-10-04T11:18:30.260Z,18.53
2022-10-04T11:19:30.252Z,18.34
2022-10-04T11:20:30.265Z,18.40
2022-10-04T11:21:30.246Z,18.43
2022-10-04T11:22:33.691Z,18.55
2022-10-04T11:23:31.220Z,18.55
2022-10-04T11:24:30.214Z,18.55
2022-10-04T11:25:30.215Z,18.50
2022-10-04T11:26:30.202Z,18.55
2022-10-04T11:27:30.218Z,18.52
2022-10-04T11:28:30.245Z,18.60
2022-10-04T11:29:30.176Z,18.65
2022-10-04T11:30:30.169Z,18.65
2022-10-04T11:31:30.209Z,18.65
2022-10-04T11:32:30.180Z,18.70
2022-10-04T11:33:30.143Z,18.52
2022-10-04T11:34:30.133Z,18.41
2022-10-04T11:35:30.127Z,18.31
2022-10-04T11:36:30.124Z,18.29
2022-10-04T11:37:30.138Z,18.34
2022-10-04T11:38:30.110Z,18.34
2022-10-04T11:39:30.092Z,18.41
2022-10-04T11:40:30.090Z,18.49
2022-10-04T11:41:30.085Z,18.45
2022-10-04T11:42:30.097Z,18.52
2022-10-04T11:43:30.067Z,18.63
2022-10-04T11:44:30.056Z,18.70
2022-10-04T11:45:30.054Z,18.68
2022-10-04T11:46:30.066Z,18.81
2022-10-04T11:47:30.062Z,18.89
2022-10-04T11:48:30.026Z,18.92
2022-10-04T11:49:30.016Z,18.98
2022-10-04T11:50:30.010Z,19.04
2022-10-04T11:51:29.997Z,18.92
2022-10-04T11:52:30.025Z,18.92
2022-10-04T11:53:29.996Z,18.98
2022-10-04T11:54:29.981Z,18.84
2022-10-04T11:55:29.969Z,18.96
2022-10-04T11:56:29.965Z,18.96
2022-10-04T11:57:29.991Z,19.00
2022-10-04T11:58:29.941Z,19.04
2022-10-04T11:59:29.943Z,19.00
2022-10-04T12:00:29.932Z,19.12
2022-10-04T12:01:29.922Z,19.15
2022-10-04T12:02:29.942Z,19.11
2022-10-04T12:03:29.980Z,19.09
2022-10-04T12:04:29.942Z,18.98
2022-10-04T12:05:29.892Z,19.09
2022-10-04T12:06:29.887Z,18.98
2022-10-04T12:07:29.901Z,18.93
2022-10-04T12:08:29.869Z,18.95
2022-10-04T12:09:29.858Z,18.98
2022-10-04T12:10:29.849Z,19.04
2022-10-04T12:11:29.839Z,19.11
2022-10-04T12:12:29.868Z,19.18
2022-10-04T12:13:29.832Z,19.24
2022-10-04T12:14:29.825Z,19.29
2022-10-04T12:15:29.811Z,19.41
2022-10-04T12:16:29.948Z,19.39
2022-10-04T12:17:29.828Z,19.19
2022-10-04T12:18:29.811Z,19.16
2022-10-04T12:19:29.789Z,19.09
2022-10-04T12:20:29.785Z,19.04
2022-10-04T12:21:29.776Z,19.15
2022-10-04T12:22:29.789Z,19.14
2022-10-04T12:23:29.750Z,19.12
2022-10-04T12:24:29.744Z,19.21
2022-10-04T12:25:29.724Z,19.27
2022-10-04T12:26:30.734Z,19.29
2022-10-04T12:27:29.751Z,19.34
2022-10-04T12:28:29.732Z,19.29
2022-10-04T12:29:29.708Z,19.22
2022-10-04T12:30:29.698Z,19.16
2022-10-04T12:31:29.723Z,19.22
2022-10-04T12:32:29.711Z,19.16
2022-10-04T12:33:29.671Z,19.04
2022-10-04T12:34:29.672Z,19.14
2022-10-04T12:35:29.667Z,19.15
2022-10-04T12:36:29.655Z,19.18
2022-10-04T12:37:29.671Z,19.12
2022-10-04T12:38:29.631Z,19.16
2022-10-04T12:39:29.625Z,19.16
2022-10-04T12:40:29.616Z,19.16
2022-10-04T12:41:29.613Z,19.16
2022-10-04T12:42:32.573Z,19.11
2022-10-04T12:43:30.597Z,19.11
2022-10-04T12:44:29.590Z,19.11
2022-10-04T12:45:29.641Z,19.00
2022-10-04T12:46:29.570Z,19.18
2022-10-04T12:47:29.595Z,19.15
2022-10-04T12:48:29.553Z,19.15
2022-10-04T12:49:29.552Z,19.11
2022-10-04T12:50:29.545Z,19.24
2022-10-04T12:51:29.537Z,19.11
2022-10-04T12:52:29.546Z,19.24
2022-10-04T12:53:29.524Z,19.18
2022-10-04T12:54:29.517Z,19.15
2022-10-04T12:55:29.503Z,19.11
2022-10-04T12:56:29.492Z,19.18
2022-10-04T12:57:29.513Z,19.18
2022-10-04T12:58:29.488Z,19.19
2022-10-04T12:59:29.473Z,19.22
2022-10-04T13:00:29.464Z,19.26
2022-10-04T13:01:29.513Z,19.36
2022-10-04T13:02:29.531Z,19.44
2022-10-04T13:03:30.452Z,19.44
2022-10-04T13:04:29.448Z,19.45
2022-10-04T13:05:29.427Z,19.51
2022-10-04T13:06:29.425Z,19.51